EPKKEPWA

Guest
Details From EPKK - BALICE
To EPWA - WARSZAWA Okecie
Flight Number -
Tags decoded
Created
Modified
Stats Distance 138 nm / 255 km
Max Altitude 0 ft / 0 m
Waypoints 3
Social Downloads 0
Likes 0
Share VATSIM

Download

Looking for another format? Having issues loading an existing format? Contact us
Advertisement - Login to hide

Notes

Requested: EPKK KOTEK M866 GERVI P581 EPWA Unmatched points: M866 P581

Route

EPKK KOTEK EPWA

ID Type Via Altitude Latitude Longitude Leg Dist Tot Dist Heading (true) Name
O EPKK APT - 0 ft / 0 m 50.07782˚ 19.78550˚ - 0 nm - BALICE
KOTEK FIX - 0 ft / 0 m 52.06750˚ 20.61694˚ 123 nm 123 nm 14° / 15° -
O EPWA APT - 0 ft / 0 m 52.16509˚ 20.96692˚ 14 nm 137 nm 65° / 66° WARSZAWA Okecie

Altitude Profile

Advertisement - Login to hide

EPKK

Details ICAO EPKK (KRK)
Name BALICE
Region Poland
Timezone Europe/Warsaw (UTC+2.0)
Stats Elevation 791 ft / 241 m (AMSL)
Location 50.077821° 19.785503°
Runways 1
Magnetic Variation 5.255° E

METAR

EPKK 231100Z 02011KT 9999 FEW030 23/16 Q1020

Decode

TAF

TAF TAF EPKK 230830Z 2309/2409 VRB02KT CAVOK TEMPO 2309/2310 VRB12KT BKN040CB TEMPO 2310/2320 VRB15G33KT 2000 TSRA BKN030CB TEMPO 2320/2324 4000 SHRA BKN025CB BECMG 2400/2403 3000 BR PROB40 2400/2405 0400 FG BECMG 2405/2408 07010KT CAVOK

Decode

Departure Runways

ID Width Length Bearing (true) Bearing (mag) Surface Threshold Offset Overrun Length
07 197 ft / 60 m 8,343 ft / 2,543 m 77.75° 72.49° Concrete 0 ft / 0 m 0 ft / 0 m
25 197 ft / 60 m 8,343 ft / 2,543 m 257.77° 252.51° Concrete 784 ft / 239 m 0 ft / 0 m

EPWA

Details ICAO EPWA (WAW)
Name WARSZAWA Okecie
Region Poland
Timezone Europe/Warsaw (UTC+2.0)
Stats Elevation 328 ft / 100 m (AMSL)
Location 52.165091° 20.966923°
Runways 2
Magnetic Variation 5.858° E

METAR

EPWA 231100Z 05006KT 350V160 CAVOK 23/10 Q1022 NOSIG

Decode

TAF

TAF EPWA 230830Z 2309/2409 04010KT CAVOK

Decode

Destination Runways

ID Width Length Bearing (true) Bearing (mag) Surface Threshold Offset Overrun Length
11 164 ft / 50 m 9,163 ft / 2,793 m 114.64° 108.78° Asphalt 0 ft / 0 m 476 ft / 145 m
15 197 ft / 60 m 12,112 ft / 3,692 m 151.85° 145.99° Asphalt 0 ft / 0 m 0 ft / 0 m
29 164 ft / 50 m 9,163 ft / 2,793 m 294.67° 288.81° Asphalt 1,608 ft / 490 m 0 ft / 0 m
33 197 ft / 60 m 12,112 ft / 3,692 m 331.87° 326.01° Asphalt 0 ft / 0 m 0 ft / 0 m

Approach Navaids

Runway Type Ident Frequency Range Bearing (true) Bearing (mag) Slope Elevation
11 Localiser WAS 109.90 MHz 18 nm / 33 km 114.53° 108.68° - 328 ft / 100 m (AMSL)
11 Glidescope WAS 109.90 MHz 10 nm / 19 km 114.66° 108.80° 3.00° 328 ft / 100 m (AMSL)
11 DME WAS 109.90 MHz 18 nm / 33 km - - - 394 ft / 120 m (AMSL)
33 Localiser WA 110.30 MHz 18 nm / 33 km 331.88° 326.02° - 328 ft / 100 m (AMSL)
33 Glidescope WA 110.30 MHz 10 nm / 19 km 331.86° 326.01° 3.00° 328 ft / 100 m (AMSL)
33 DME WA 110.30 MHz 18 nm / 33 km - - - 394 ft / 120 m (AMSL)

Popular Alternatives